SWR221Y LSZH-OLBA
Flight info
| Callsign | SWR221Y |
|---|---|
| Flight time | N/A |
| Altitude | 37000 |
| Route | DEGES Z2 XEBIX L607 ELMEM N606 GIRIS DCT NIVAS DCT PEVAL DCT SPL DCT PETAK DCT PINDO DCT ATV UL995 RDS UM601 EVENO M601 LCA M31 KUKLA |
| Aircraft | A21N/M-SDE2E3FGHIRWXY/LB1 |
Departure
| Time | 2026-05-07 15:26 |
|---|---|
| Airport | Zürich Airport (LSZH) |
Arrival
| Time | N/A |
|---|---|
| Airport | Beirut Rafic Hariri International Airport (OLBA) |
| Time | Latitude | Longitude | Altitude | Speed | Heading |
|---|---|---|---|---|---|
| 2026-05-07 14:33 | 47.46140 | 8.55874 | 1397 ft | 0 kts | 275° |
| 2026-05-07 14:36 | 47.46140 | 8.55875 | 1397 ft | 0 kts | 275° |
| 2026-05-07 15:13 | 47.46140 | 8.55877 | 1397 ft | 2 kts | 275° |
| 2026-05-07 15:14 | 47.46139 | 8.55902 | 1405 ft | 2 kts | 275° |
| 2026-05-07 15:14 | 47.46138 | 8.55928 | 1404 ft | 2 kts | 268° |
| 2026-05-07 15:14 | 47.46140 | 8.55953 | 1404 ft | 2 kts | 253° |
| 2026-05-07 15:14 | 47.46147 | 8.55977 | 1402 ft | 2 kts | 232° |
| 2026-05-07 15:15 | 47.46160 | 8.55995 | 1401 ft | 3 kts | 208° |
| 2026-05-07 15:15 | 47.46172 | 8.56003 | 1400 ft | 0 kts | 190° |
| 2026-05-07 15:18 | 47.46158 | 8.56000 | 1401 ft | 3 kts | 186° |
| 2026-05-07 15:18 | 47.46139 | 8.55997 | 1403 ft | 2 kts | 184° |
| 2026-05-07 15:18 | 47.46126 | 8.55996 | 1400 ft | 2 kts | 184° |
| 2026-05-07 15:19 | 47.46104 | 8.55993 | 1397 ft | 7 kts | 185° |
| 2026-05-07 15:19 | 47.46055 | 8.55985 | 1397 ft | 8 kts | 186° |
| 2026-05-07 15:19 | 47.46009 | 8.55978 | 1397 ft | 6 kts | 185° |
| 2026-05-07 15:19 | 47.45974 | 8.55971 | 1397 ft | 4 kts | 193° |
| 2026-05-07 15:20 | 47.45950 | 8.55961 | 1397 ft | 3 kts | 197° |
| 2026-05-07 15:20 | 47.45936 | 8.55955 | 1400 ft | 1 kts | 197° |
| 2026-05-07 15:20 | 47.45932 | 8.55952 | 1404 ft | 0 kts | 200° |
| 2026-05-07 15:20 | 47.45930 | 8.55951 | 1403 ft | 3 kts | 200° |
| 2026-05-07 15:21 | 47.45868 | 8.55932 | 1404 ft | 10 kts | 164° |
| 2026-05-07 15:21 | 47.45841 | 8.56004 | 1400 ft | 7 kts | 101° |
| 2026-05-07 15:21 | 47.45835 | 8.56075 | 1398 ft | 10 kts | 96° |
| 2026-05-07 15:21 | 47.45826 | 8.56209 | 1399 ft | 13 kts | 96° |
| 2026-05-07 15:22 | 47.45816 | 8.56332 | 1407 ft | 11 kts | 97° |
| 2026-05-07 15:22 | 47.45809 | 8.56440 | 1399 ft | 10 kts | 96° |
| 2026-05-07 15:22 | 47.45802 | 8.56543 | 1402 ft | 15 kts | 96° |
| 2026-05-07 15:22 | 47.45791 | 8.56688 | 1403 ft | 13 kts | 97° |
| 2026-05-07 15:23 | 47.45782 | 8.56813 | 1399 ft | 11 kts | 95° |
| 2026-05-07 15:23 | 47.45775 | 8.56915 | 1405 ft | 7 kts | 96° |
| 2026-05-07 15:23 | 47.45774 | 8.56934 | 1399 ft | 0 kts | 96° |
| 2026-05-07 15:24 | 47.45772 | 8.56957 | 1399 ft | 8 kts | 97° |
| 2026-05-07 15:24 | 47.45752 | 8.57018 | 1407 ft | 5 kts | 135° |
| 2026-05-07 15:24 | 47.45722 | 8.57035 | 1404 ft | 4 kts | 176° |
| 2026-05-07 15:25 | 47.45677 | 8.57026 | 1407 ft | 3 kts | 210° |
| 2026-05-07 15:25 | 47.45670 | 8.56999 | 1407 ft | 4 kts | 252° |
| 2026-05-07 15:25 | 47.45683 | 8.56696 | 1406 ft | 68 kts | 276° |
| 2026-05-07 15:25 | 47.45762 | 8.55665 | 1399 ft | 131 kts | 275° |
| 2026-05-07 15:26 | 47.45871 | 8.54069 | 1443 ft | 176 kts | 275° |
| 2026-05-07 15:26 | 47.46004 | 8.52255 | 2162 ft | 174 kts | 274° |
| 2026-05-07 15:26 | 47.46131 | 8.50500 | 2900 ft | 170 kts | 276° |
| 2026-05-07 15:26 | 47.46250 | 8.48670 | 3397 ft | 182 kts | 271° |
| 2026-05-07 15:27 | 47.45880 | 8.46866 | 3608 ft | 204 kts | 233° |
| 2026-05-07 15:27 | 47.44769 | 8.45425 | 3943 ft | 220 kts | 220° |
| 2026-05-07 15:27 | 47.43798 | 8.43674 | 4635 ft | 223 kts | 245° |
| 2026-05-07 15:27 | 47.43308 | 8.41504 | 5333 ft | 222 kts | 255° |
| 2026-05-07 15:28 | 47.42898 | 8.39311 | 6153 ft | 222 kts | 254° |
| 2026-05-07 15:28 | 47.42167 | 8.37348 | 6828 ft | 227 kts | 221° |
| 2026-05-07 15:28 | 47.40732 | 8.36410 | 7532 ft | 233 kts | 185° |
| 2026-05-07 15:28 | 47.39062 | 8.37033 | 8260 ft | 241 kts | 146° |
| 2026-05-07 15:29 | 47.38089 | 8.38841 | 8892 ft | 248 kts | 110° |
| 2026-05-07 15:29 | 47.38010 | 8.41360 | 9551 ft | 253 kts | 71° |
| 2026-05-07 15:29 | 47.38955 | 8.43530 | 10177 ft | 255 kts | 41° |
| 2026-05-07 15:29 | 47.40332 | 8.45191 | 10796 ft | 257 kts | 34° |
| 2026-05-07 15:30 | 47.41708 | 8.46916 | 11339 ft | 268 kts | 45° |
| 2026-05-07 15:30 | 47.42996 | 8.49072 | 11562 ft | 292 kts | 50° |
| 2026-05-07 15:30 | 47.44124 | 8.51699 | 11781 ft | 316 kts | 69° |
| 2026-05-07 15:30 | 47.44541 | 8.54924 | 11979 ft | 337 kts | 87° |
| 2026-05-07 15:31 | 47.44675 | 8.58493 | 12108 ft | 360 kts | 88° |
| 2026-05-07 15:31 | 47.44783 | 8.62290 | 12362 ft | 376 kts | 88° |
| 2026-05-07 15:31 | 47.44882 | 8.66180 | 12939 ft | 382 kts | 89° |
| 2026-05-07 15:31 | 47.44977 | 8.70122 | 13600 ft | 385 kts | 90° |
| 2026-05-07 15:32 | 47.44651 | 8.74039 | 14179 ft | 387 kts | 108° |
| 2026-05-07 15:32 | 47.43655 | 8.77686 | 14731 ft | 389 kts | 115° |
| 2026-05-07 15:32 | 47.42549 | 8.81334 | 15305 ft | 392 kts | 115° |
| 2026-05-07 15:32 | 47.41428 | 8.85019 | 15882 ft | 394 kts | 115° |
| 2026-05-07 15:33 | 47.40303 | 8.88713 | 16417 ft | 398 kts | 115° |
| 2026-05-07 15:33 | 47.39158 | 8.92478 | 16970 ft | 401 kts | 115° |
| 2026-05-07 15:33 | 47.38015 | 8.96242 | 17516 ft | 404 kts | 115° |
| 2026-05-07 15:33 | 47.36861 | 9.00032 | 18048 ft | 408 kts | 115° |
| 2026-05-07 15:34 | 47.35686 | 9.03880 | 18536 ft | 411 kts | 115° |
| 2026-05-07 15:34 | 47.34512 | 9.07731 | 18973 ft | 414 kts | 115° |
| 2026-05-07 15:34 | 47.33326 | 9.11620 | 19448 ft | 417 kts | 115° |
| 2026-05-07 15:34 | 47.32127 | 9.15534 | 19890 ft | 420 kts | 115° |
| 2026-05-07 15:35 | 47.30919 | 9.19460 | 20322 ft | 423 kts | 115° |
| 2026-05-07 15:35 | 47.29695 | 9.23419 | 20763 ft | 426 kts | 115° |
| 2026-05-07 15:35 | 47.28462 | 9.27401 | 21194 ft | 428 kts | 115° |
| 2026-05-07 15:35 | 47.27240 | 9.31349 | 21629 ft | 431 kts | 115° |
| 2026-05-07 15:36 | 47.25997 | 9.35370 | 22068 ft | 433 kts | 115° |
| 2026-05-07 15:36 | 47.24744 | 9.39421 | 22488 ft | 436 kts | 115° |
| 2026-05-07 15:36 | 47.23488 | 9.43482 | 22894 ft | 439 kts | 115° |
| 2026-05-07 15:36 | 47.22217 | 9.47582 | 23293 ft | 441 kts | 115° |
| 2026-05-07 15:37 | 47.20934 | 9.51705 | 23665 ft | 444 kts | 115° |
| 2026-05-07 15:37 | 47.19642 | 9.55836 | 23987 ft | 447 kts | 116° |
| 2026-05-07 15:37 | 47.18339 | 9.60000 | 24327 ft | 448 kts | 115° |
| 2026-05-07 15:37 | 47.17033 | 9.64169 | 24657 ft | 451 kts | 116° |
| 2026-05-07 15:38 | 47.15735 | 9.68311 | 24966 ft | 453 kts | 116° |
| 2026-05-07 15:38 | 47.14414 | 9.72527 | 25313 ft | 455 kts | 116° |
| 2026-05-07 15:38 | 47.13090 | 9.76750 | 25651 ft | 457 kts | 116° |
| 2026-05-07 15:38 | 47.11757 | 9.80993 | 25968 ft | 459 kts | 116° |
| 2026-05-07 15:39 | 47.10415 | 9.85250 | 26266 ft | 461 kts | 116° |
| 2026-05-07 15:39 | 47.09062 | 9.89525 | 26585 ft | 463 kts | 116° |
| 2026-05-07 15:39 | 47.07699 | 9.93825 | 26869 ft | 465 kts | 116° |
| 2026-05-07 15:39 | 47.06334 | 9.98126 | 27160 ft | 467 kts | 116° |
| 2026-05-07 15:40 | 47.04960 | 10.02458 | 27444 ft | 468 kts | 116° |
| 2026-05-07 15:40 | 47.03581 | 10.06797 | 27719 ft | 470 kts | 116° |
| 2026-05-07 15:40 | 47.02194 | 10.11150 | 27977 ft | 472 kts | 116° |
| 2026-05-07 15:40 | 47.00802 | 10.15510 | 28238 ft | 474 kts | 116° |
| 2026-05-07 15:41 | 46.99403 | 10.19885 | 28489 ft | 476 kts | 116° |
| 2026-05-07 15:41 | 46.98013 | 10.24226 | 28830 ft | 476 kts | 116° |
| 2026-05-07 15:41 | 46.96609 | 10.28609 | 29185 ft | 475 kts | 116° |
| 2026-05-07 15:41 | 46.95208 | 10.32975 | 29540 ft | 475 kts | 116° |
| 2026-05-07 15:42 | 46.93798 | 10.37357 | 29912 ft | 474 kts | 116° |
| 2026-05-07 15:42 | 46.92391 | 10.41720 | 30229 ft | 474 kts | 117° |
| 2026-05-07 15:42 | 46.90983 | 10.46069 | 30487 ft | 475 kts | 117° |
| 2026-05-07 15:42 | 46.89566 | 10.50439 | 30731 ft | 476 kts | 117° |
| 2026-05-07 15:43 | 46.88148 | 10.54814 | 30985 ft | 477 kts | 117° |
| 2026-05-07 15:43 | 46.86723 | 10.59201 | 31251 ft | 478 kts | 117° |
| 2026-05-07 15:43 | 46.85296 | 10.63591 | 31510 ft | 478 kts | 117° |
| 2026-05-07 15:43 | 46.83869 | 10.67980 | 31771 ft | 479 kts | 117° |
| 2026-05-07 15:44 | 46.82435 | 10.72373 | 32044 ft | 480 kts | 117° |
| 2026-05-07 15:44 | 46.80992 | 10.76771 | 32318 ft | 481 kts | 117° |
| 2026-05-07 15:44 | 46.79546 | 10.81176 | 32590 ft | 481 kts | 118° |
| 2026-05-07 15:44 | 46.78073 | 10.85566 | 32851 ft | 481 kts | 121° |
| 2026-05-07 15:45 | 46.76316 | 10.89616 | 33079 ft | 478 kts | 130° |
| 2026-05-07 15:45 | 46.74196 | 10.93316 | 33337 ft | 476 kts | 135° |
| 2026-05-07 15:45 | 46.71991 | 10.96926 | 33602 ft | 477 kts | 135° |
| 2026-05-07 15:45 | 46.69790 | 11.00535 | 33830 ft | 477 kts | 135° |
| 2026-05-07 15:46 | 46.65374 | 11.07766 | 34197 ft | 478 kts | 135° |
| 2026-05-07 15:46 | 46.63162 | 11.11375 | 34417 ft | 478 kts | 135° |
| 2026-05-07 15:46 | 46.60940 | 11.14996 | 34571 ft | 479 kts | 136° |
| 2026-05-07 15:47 | 46.58722 | 11.18602 | 34785 ft | 478 kts | 136° |
| 2026-05-07 15:47 | 46.56512 | 11.22196 | 35011 ft | 478 kts | 136° |
| 2026-05-07 15:47 | 46.54289 | 11.25806 | 35252 ft | 478 kts | 136° |
| 2026-05-07 15:47 | 46.52079 | 11.29390 | 35485 ft | 477 kts | 136° |
| 2026-05-07 15:48 | 46.49862 | 11.32980 | 35698 ft | 477 kts | 136° |
| 2026-05-07 15:48 | 46.47677 | 11.36513 | 35928 ft | 476 kts | 136° |
| 2026-05-07 15:48 | 46.45466 | 11.40082 | 36146 ft | 475 kts | 136° |
| 2026-05-07 15:48 | 46.43258 | 11.43647 | 36346 ft | 475 kts | 136° |
| 2026-05-07 15:49 | 46.41050 | 11.47204 | 36533 ft | 474 kts | 136° |
| 2026-05-07 15:49 | 46.38839 | 11.50758 | 36732 ft | 474 kts | 136° |
| 2026-05-07 15:49 | 46.36631 | 11.54299 | 36913 ft | 474 kts | 136° |
| 2026-05-07 15:50 | 46.32201 | 11.61390 | 36968 ft | 476 kts | 136° |
| 2026-05-07 15:50 | 46.27758 | 11.68500 | 36975 ft | 476 kts | 136° |
| 2026-05-07 15:51 | 46.23338 | 11.75561 | 36979 ft | 477 kts | 137° |
| 2026-05-07 15:51 | 46.18880 | 11.82645 | 36988 ft | 477 kts | 137° |
| 2026-05-07 15:52 | 46.14416 | 11.89721 | 36977 ft | 477 kts | 137° |
| 2026-05-07 15:52 | 46.09948 | 11.96789 | 36976 ft | 477 kts | 137° |
| 2026-05-07 15:53 | 46.05480 | 12.03851 | 36965 ft | 477 kts | 137° |
| 2026-05-07 15:53 | 46.01012 | 12.10894 | 36964 ft | 477 kts | 137° |
| 2026-05-07 15:54 | 45.96560 | 12.17881 | 36961 ft | 477 kts | 137° |
| 2026-05-07 15:54 | 45.92084 | 12.24884 | 36964 ft | 476 kts | 137° |
| 2026-05-07 15:55 | 45.87620 | 12.31930 | 36964 ft | 477 kts | 136° |
| 2026-05-07 15:55 | 45.83291 | 12.39157 | 36960 ft | 478 kts | 135° |
| 2026-05-07 15:56 | 45.79001 | 12.46446 | 36960 ft | 478 kts | 136° |
| 2026-05-07 15:56 | 45.74675 | 12.53667 | 36959 ft | 478 kts | 136° |
| 2026-05-07 15:57 | 45.70343 | 12.60793 | 36962 ft | 478 kts | 136° |
| 2026-05-07 15:57 | 45.65950 | 12.68013 | 36971 ft | 478 kts | 136° |
| 2026-05-07 15:58 | 45.64126 | 12.71015 | 36976 ft | 478 kts | 136° |
| 2026-05-07 15:58 | 45.59815 | 12.78109 | 36970 ft | 478 kts | 137° |
| 2026-05-07 15:59 | 45.55451 | 12.85267 | 36970 ft | 478 kts | 137° |
| 2026-05-07 15:59 | 45.51077 | 12.92403 | 36975 ft | 478 kts | 137° |
| 2026-05-07 16:00 | 45.46700 | 12.99536 | 36978 ft | 478 kts | 137° |
| 2026-05-07 16:00 | 45.42325 | 13.06651 | 36983 ft | 477 kts | 137° |
| 2026-05-07 16:01 | 45.37983 | 13.13698 | 36991 ft | 477 kts | 137° |
| 2026-05-07 16:01 | 45.33606 | 13.20778 | 36997 ft | 476 kts | 137° |
| 2026-05-07 16:02 | 45.29254 | 13.27861 | 37004 ft | 477 kts | 136° |
| 2026-05-07 16:02 | 45.25084 | 13.35220 | 37005 ft | 478 kts | 134° |
| 2026-05-07 16:03 | 45.21004 | 13.42667 | 37003 ft | 478 kts | 134° |
| 2026-05-07 16:03 | 45.16891 | 13.50043 | 37006 ft | 477 kts | 134° |
| 2026-05-07 16:04 | 45.12735 | 13.57354 | 37005 ft | 476 kts | 135° |
| 2026-05-07 16:04 | 45.08594 | 13.64570 | 37014 ft | 475 kts | 135° |
| 2026-05-07 16:05 | 45.04446 | 13.71823 | 37018 ft | 473 kts | 135° |
| 2026-05-07 16:05 | 45.00321 | 13.79050 | 37027 ft | 473 kts | 135° |
| 2026-05-07 16:06 | 44.96187 | 13.86265 | 37032 ft | 472 kts | 135° |
| 2026-05-07 16:06 | 44.92036 | 13.93455 | 37024 ft | 472 kts | 135° |
| 2026-05-07 16:07 | 44.87886 | 14.00631 | 37023 ft | 472 kts | 135° |
| 2026-05-07 16:07 | 44.83738 | 14.07813 | 37026 ft | 472 kts | 135° |
| 2026-05-07 16:08 | 44.79591 | 14.14977 | 37014 ft | 472 kts | 135° |
| 2026-05-07 16:08 | 44.75460 | 14.22082 | 37023 ft | 472 kts | 135° |
| 2026-05-07 16:09 | 44.71306 | 14.29214 | 37022 ft | 472 kts | 135° |
| 2026-05-07 16:09 | 44.67138 | 14.36349 | 37026 ft | 472 kts | 135° |
| 2026-05-07 16:10 | 44.62969 | 14.43462 | 37030 ft | 472 kts | 135° |
| 2026-05-07 16:10 | 44.58820 | 14.50528 | 37027 ft | 472 kts | 135° |
| 2026-05-07 16:11 | 44.54646 | 14.57612 | 37029 ft | 472 kts | 135° |
| 2026-05-07 16:11 | 44.50466 | 14.64707 | 37027 ft | 472 kts | 135° |
| 2026-05-07 16:12 | 44.46270 | 14.71792 | 37030 ft | 472 kts | 135° |
| 2026-05-07 16:12 | 44.42080 | 14.78863 | 37029 ft | 472 kts | 135° |
| 2026-05-07 16:13 | 44.37887 | 14.85931 | 37031 ft | 472 kts | 135° |
| 2026-05-07 16:13 | 44.33681 | 14.92986 | 37035 ft | 473 kts | 135° |
| 2026-05-07 16:14 | 44.29496 | 14.99992 | 37036 ft | 473 kts | 135° |
| 2026-05-07 16:14 | 44.25276 | 15.07030 | 37037 ft | 473 kts | 135° |
| 2026-05-07 16:15 | 44.21052 | 15.14069 | 37034 ft | 473 kts | 135° |
| 2026-05-07 16:15 | 44.16824 | 15.21095 | 37026 ft | 473 kts | 135° |
| 2026-05-07 16:16 | 44.12588 | 15.28125 | 37025 ft | 474 kts | 135° |
| 2026-05-07 16:16 | 44.08344 | 15.35136 | 37030 ft | 474 kts | 136° |
| 2026-05-07 16:17 | 44.04114 | 15.42098 | 37024 ft | 475 kts | 136° |
| 2026-05-07 16:17 | 43.99860 | 15.49116 | 37031 ft | 475 kts | 135° |
| 2026-05-07 16:18 | 43.95600 | 15.56127 | 37037 ft | 475 kts | 136° |
| 2026-05-07 16:18 | 43.91329 | 15.63119 | 37044 ft | 475 kts | 136° |
| 2026-05-07 16:19 | 43.87054 | 15.70096 | 37050 ft | 475 kts | 136° |
| 2026-05-07 16:19 | 43.82769 | 15.77066 | 37045 ft | 475 kts | 136° |
| 2026-05-07 16:20 | 43.78509 | 15.83985 | 37043 ft | 475 kts | 136° |
| 2026-05-07 16:20 | 43.74223 | 15.90949 | 37041 ft | 476 kts | 136° |
| 2026-05-07 16:21 | 43.69924 | 15.97907 | 37051 ft | 475 kts | 136° |
| 2026-05-07 16:21 | 43.65629 | 16.04844 | 37056 ft | 476 kts | 136° |
| 2026-05-07 16:22 | 43.61322 | 16.11782 | 37057 ft | 476 kts | 136° |
| 2026-05-07 16:22 | 43.57039 | 16.18665 | 37059 ft | 476 kts | 136° |
| 2026-05-07 16:23 | 43.52722 | 16.25575 | 37057 ft | 476 kts | 136° |
| 2026-05-07 16:23 | 43.48415 | 16.32519 | 37054 ft | 478 kts | 134° |
| 2026-05-07 16:24 | 43.44370 | 16.39797 | 37053 ft | 480 kts | 131° |
| 2026-05-07 16:24 | 43.40464 | 16.47259 | 37056 ft | 481 kts | 131° |
| 2026-05-07 16:25 | 43.36510 | 16.54665 | 37058 ft | 480 kts | 132° |
| 2026-05-07 16:25 | 43.32506 | 16.61932 | 37055 ft | 480 kts | 133° |
| 2026-05-07 16:26 | 43.28461 | 16.69214 | 37054 ft | 480 kts | 133° |
| 2026-05-07 16:26 | 43.24429 | 16.76528 | 37050 ft | 481 kts | 132° |
| 2026-05-07 16:27 | 43.20398 | 16.83841 | 37049 ft | 481 kts | 132° |